Time;durP1;ratioP1;P1;durP2;ratioP2;P2;SDS_P1;SDS_P2;PMS_P1;PMS_P2;Temp;Humidity;BMP_temperature;BMP_pressure;BME280_temperature;BME280_humidity;BME280_pressure;Samples;Min_cycle;Max_cycle;Signal;HPM_P1;HPM_P2
2022/08/16 00:00:37;;;;;;;0.68;0.50;;;15.60;99.90;;;;;;5041649;28;20201;-79
2022/08/16 00:03:08;;;;;;;1.02;0.47;;;15.60;99.90;;;;;;5038205;28;20218;-76
2022/08/16 00:05:39;;;;;;;2.83;0.50;;;15.70;99.90;;;;;;5034905;28;20186;-78
2022/08/16 00:08:10;;;;;;;3.30;1.05;;;15.70;99.90;;;;;;5035690;28;20649;-79
2022/08/16 00:10:43;;;;;;;4.50;0.82;;;15.80;99.90;;;;;;5044558;28;20212;-79
2022/08/16 00:13:14;;;;;;;0.57;0.40;;;15.90;99.90;;;;;;5034236;28;20664;-76
2022/08/16 00:15:47;;;;;;;0.40;0.40;;;16.00;99.90;;;;;;5038505;28;20206;-78
2022/08/16 00:18:20;;;;;;;0.77;0.40;;;16.10;99.90;;;;;;5030939;28;20195;-79
2022/08/16 00:20:51;;;;;;;0.50;0.30;;;16.20;99.90;;;;;;5033452;28;20642;-78
2022/08/16 00:23:22;;;;;;;3.55;0.60;;;16.20;99.90;;;;;;5034758;28;20221;-78
2022/08/16 00:25:54;;;;;;;0.40;0.30;;;16.20;99.90;;;;;;5033621;28;20201;-79
2022/08/16 00:28:25;;;;;;;0.30;0.30;;;16.30;99.90;;;;;;5029543;28;20237;-72
2022/08/16 00:30:56;;;;;;;1.25;0.43;;;16.40;99.90;;;;;;5029687;28;20984;-72
2022/08/16 00:33:27;;;;;;;1.50;0.47;;;16.50;99.90;;;;;;5031465;28;20225;-73
2022/08/16 00:35:57;;;;;;;0.50;0.30;;;16.50;99.90;;;;;;5027316;28;20270;-71
2022/08/16 00:38:28;;;;;;;0.50;0.30;;;16.60;99.90;;;;;;5027304;28;20233;-80
2022/08/16 00:41:02;;;;;;;1.13;0.50;;;16.60;99.90;;;;;;5038954;28;20202;-73
2022/08/16 00:43:35;;;;;;;1.20;0.40;;;16.60;99.90;;;;;;5033532;28;20211;-77
2022/08/16 00:46:13;;;;;;;1.00;0.30;;;16.60;99.90;;;;;;5033249;28;20209;-79
2022/08/16 00:48:44;;;;;;;10.45;6.50;;;16.70;99.90;;;;;;5033887;28;20194;-76
2022/08/16 00:51:16;;;;;;;9.63;7.35;;;16.80;99.90;;;;;;5034580;28;20244;-78
2022/08/16 00:53:47;;;;;;;1.48;1.00;;;16.90;99.90;;;;;;5028673;28;20211;-78
2022/08/16 00:56:23;;;;;;;2.42;0.60;;;17.10;99.90;;;;;;5031661;28;20198;-78
2022/08/16 00:58:54;;;;;;;1.67;0.70;;;17.00;99.90;;;;;;5028652;28;20206;-75
2022/08/16 01:01:25;;;;;;;0.85;0.47;;;17.00;99.90;;;;;;5037761;28;20204;-75
2022/08/16 01:03:57;;;;;;;0.55;0.30;;;17.10;99.90;;;;;;5034645;28;20202;-78
2022/08/16 01:06:29;;;;;;;0.50;0.50;;;17.10;99.90;;;;;;5042387;28;20732;-75
2022/08/16 01:09:03;;;;;;;9.85;5.20;;;17.10;99.90;;;;;;5042344;28;20194;-80
2022/08/16 01:11:37;;;;;;;2.60;1.45;;;17.10;99.90;;;;;;5036936;28;20202;-75
2022/08/16 01:14:13;;;;;;;1.50;1.10;;;17.20;99.90;;;;;;5031907;28;20198;-75
2022/08/16 01:16:47;;;;;;;1.88;1.10;;;17.40;99.90;;;;;;5039086;28;20209;-78
2022/08/16 01:19:23;;;;;;;1.83;0.73;;;17.40;99.90;;;;;;5028766;28;20271;-80
2022/08/16 01:21:59;;;;;;;1.15;0.57;;;17.50;99.90;;;;;;5037097;28;20198;-77
2022/08/16 01:24:36;;;;;;;1.85;0.60;;;17.60;99.90;;;;;;5029790;28;20209;-76
2022/08/16 01:27:10;;;;;;;0.88;0.50;;;17.60;99.90;;;;;;5031486;28;20228;-75
2022/08/16 01:29:46;;;;;;;0.70;0.60;;;17.70;99.90;;;;;;5023065;28;20198;-78
2022/08/16 01:32:16;;;;;;;0.55;0.30;;;17.80;99.90;;;;;;5032573;28;20629;-74
2022/08/16 01:34:48;;;;;;;1.60;0.30;;;17.80;99.90;;;;;;5030307;28;20202;-72
2022/08/16 01:37:20;;;;;;;0.30;0.28;;;17.90;99.90;;;;;;5030712;28;20205;-70
2022/08/16 01:39:52;;;;;;;0.22;0.20;;;17.90;99.90;;;;;;5034025;28;20256;-68
2022/08/16 01:42:23;;;;;;;0.30;0.20;;;18.00;99.90;;;;;;5039616;28;20229;-74
2022/08/16 01:44:54;;;;;;;0.20;0.20;;;18.10;99.90;;;;;;5035622;28;20194;-67
2022/08/16 01:47:24;;;;;;;0.80;0.35;;;18.20;99.90;;;;;;5039933;28;20201;-68
2022/08/16 01:49:55;;;;;;;0.25;0.20;;;18.10;99.90;;;;;;5031302;28;20198;-81
2022/08/16 01:52:26;;;;;;;1.20;0.32;;;18.20;99.90;;;;;;5030422;28;20212;-81
2022/08/16 01:54:59;;;;;;;0.45;0.25;;;18.40;99.90;;;;;;5032536;28;20187;-71
2022/08/16 01:57:30;;;;;;;0.20;0.20;;;18.40;99.90;;;;;;5030951;28;20202;-81
2022/08/16 02:00:01;;;;;;;1.40;0.40;;;18.40;99.90;;;;;;5036470;28;20197;-69
2022/08/16 02:02:32;;;;;;;0.32;0.20;;;18.50;99.90;;;;;;5036599;28;20584;-79
2022/08/16 02:05:03;;;;;;;0.75;0.35;;;18.60;99.90;;;;;;5032778;28;20187;-79
2022/08/16 02:07:34;;;;;;;0.43;0.20;;;18.60;99.90;;;;;;5031835;28;20190;-71
2022/08/16 02:10:08;;;;;;;0.30;0.20;;;18.60;99.90;;;;;;5022421;28;20198;-76
2022/08/16 02:12:39;;;;;;;0.82;0.40;;;18.40;99.90;;;;;;5036050;28;20202;-68
2022/08/16 02:15:11;;;;;;;0.85;0.50;;;18.40;99.90;;;;;;5034490;28;20657;-82
2022/08/16 02:17:42;;;;;;;0.30;0.13;;;18.60;99.90;;;;;;5031818;28;20590;-74
2022/08/16 02:20:14;;;;;;;0.40;0.20;;;18.70;99.90;;;;;;5032564;28;20195;-71
2022/08/16 02:22:45;;;;;;;0.38;0.20;;;18.70;99.90;;;;;;5038773;28;20301;-75
2022/08/16 02:25:18;;;;;;;0.10;0.10;;;18.70;99.90;;;;;;5032473;28;20201;-78
2022/08/16 02:27:49;;;;;;;0.32;0.10;;;18.70;99.90;;;;;;5035286;28;20230;-80
2022/08/16 02:30:22;;;;;;;0.32;0.20;;;18.50;99.90;;;;;;5034466;28;20194;-80
2022/08/16 02:32:53;;;;;;;0.13;0.10;;;18.40;99.90;;;;;;5032351;28;20194;-80
2022/08/16 02:35:25;;;;;;;0.25;0.10;;;18.40;99.90;;;;;;5031463;28;20664;-74
2022/08/16 02:37:57;;;;;;;0.30;0.30;;;18.40;99.90;;;;;;5027984;28;20190;-76
2022/08/16 02:40:30;;;;;;;0.30;0.20;;;18.50;99.90;;;;;;5030208;28;20230;-75
2022/08/16 02:43:00;;;;;;;0.30;0.20;;;18.50;99.90;;;;;;5024341;28;20217;-76
2022/08/16 02:45:31;;;;;;;0.95;0.30;;;18.50;99.90;;;;;;5030620;28;20197;-76
2022/08/16 02:48:02;;;;;;;0.40;0.40;;;18.60;99.90;;;;;;5032239;28;20193;-79
2022/08/16 02:50:33;;;;;;;0.20;0.20;;;18.70;99.90;;;;;;5028109;28;20191;-83
2022/08/16 02:53:04;;;;;;;0.22;0.20;;;18.60;99.90;;;;;;5030012;28;20642;-78
2022/08/16 02:55:36;;;;;;;0.75;0.20;;;18.70;99.90;;;;;;5030757;28;20198;-85
2022/08/16 02:58:07;;;;;;;2.50;0.47;;;18.70;99.90;;;;;;5029151;28;20198;-83
2022/08/16 03:00:38;;;;;;;0.20;0.20;;;18.70;99.90;;;;;;5029741;28;20653;-73
2022/08/16 03:03:09;;;;;;;3.00;0.20;;;18.90;99.90;;;;;;5043749;28;20712;-82
2022/08/16 03:05:40;;;;;;;0.25;0.20;;;18.80;99.90;;;;;;5032113;28;20721;-83
2022/08/16 03:08:11;;;;;;;0.40;0.10;;;18.90;99.90;;;;;;5028862;28;20198;-71
2022/08/16 03:10:44;;;;;;;0.43;0.20;;;19.00;99.90;;;;;;5030173;28;20205;-82
2022/08/16 03:13:15;;;;;;;0.17;0.17;;;18.90;99.90;;;;;;5031069;28;20191;-75
2022/08/16 03:15:47;;;;;;;0.10;0.10;;;18.90;99.90;;;;;;5031320;28;20248;-73
2022/08/16 03:18:18;;;;;;;0.22;0.13;;;19.00;99.90;;;;;;5030650;28;20183;-78
2022/08/16 03:20:48;;;;;;;0.73;0.30;;;18.90;99.90;;;;;;5031211;28;20238;-80
2022/08/16 03:23:19;;;;;;;0.57;0.20;;;18.90;99.90;;;;;;5031759;28;20206;-82
2022/08/16 03:25:52;;;;;;;1.30;0.28;;;18.90;99.90;;;;;;5029721;28;20195;-81
2022/08/16 03:28:22;;;;;;;2.00;0.28;;;18.70;99.90;;;;;;5028950;28;20214;-68
2022/08/16 03:30:54;;;;;;;0.32;0.25;;;18.50;99.90;;;;;;5024728;28;20187;-75
2022/08/16 03:33:25;;;;;;;0.55;0.30;;;18.50;99.90;;;;;;5030612;28;20190;-72
2022/08/16 03:35:58;;;;;;;0.30;0.20;;;18.50;99.90;;;;;;5030985;28;20187;-68
2022/08/16 03:38:31;;;;;;;2.78;0.50;;;18.40;99.90;;;;;;5025580;28;20234;-80
2022/08/16 03:41:04;;;;;;;2.15;0.45;;;18.30;99.90;;;;;;5034771;28;20208;-69
2022/08/16 03:43:35;;;;;;;0.38;0.20;;;18.20;99.90;;;;;;5034024;28;20708;-69
2022/08/16 03:46:06;;;;;;;0.25;0.25;;;18.00;99.90;;;;;;5033078;28;20211;-79
2022/08/16 03:48:40;;;;;;;0.38;0.30;;;18.10;99.90;;;;;;5027248;28;20201;-71
2022/08/16 03:51:13;;;;;;;0.50;0.28;;;18.20;99.90;;;;;;5030840;28;20225;-74
2022/08/16 03:53:43;;;;;;;0.65;0.22;;;18.30;99.90;;;;;;5034974;28;20534;-76
2022/08/16 03:56:16;;;;;;;1.08;0.30;;;18.50;99.90;;;;;;5031399;28;20660;-68
2022/08/16 03:58:47;;;;;;;1.05;0.80;;;18.60;99.90;;;;;;5034505;28;20201;-77
2022/08/16 04:01:18;;;;;;;1.65;0.50;;;18.70;99.90;;;;;;5033756;28;20209;-68
2022/08/16 04:03:48;;;;;;;1.77;0.40;;;18.70;99.90;;;;;;5045124;28;20218;-72
2022/08/16 04:06:19;;;;;;;0.10;0.10;;;18.80;99.90;;;;;;5034379;28;20567;-68
2022/08/16 04:08:50;;;;;;;0.20;0.20;;;18.80;99.90;;;;;;5030099;28;20190;-69
2022/08/16 04:11:23;;;;;;;0.88;0.20;;;18.70;99.90;;;;;;5035473;28;20208;-68
2022/08/16 04:13:54;;;;;;;0.85;0.30;;;18.60;99.90;;;;;;5029451;28;20233;-69
2022/08/16 04:16:25;;;;;;;0.93;0.38;;;18.60;99.90;;;;;;5027310;28;20194;-72
2022/08/16 04:18:55;;;;;;;0.75;0.30;;;18.50;99.90;;;;;;5032637;28;20202;-68
2022/08/16 04:21:26;;;;;;;0.70;0.30;;;18.50;99.90;;;;;;5033635;28;20202;-72
2022/08/16 04:23:57;;;;;;;1.80;0.30;;;18.60;99.90;;;;;;5034447;28;20218;-75
2022/08/16 04:26:30;;;;;;;0.30;0.30;;;18.60;99.90;;;;;;5029761;28;20214;-80
2022/08/16 04:29:01;;;;;;;1.85;0.20;;;18.60;99.90;;;;;;5040811;28;20569;-81
2022/08/16 04:31:31;;;;;;;1.55;0.32;;;18.60;99.90;;;;;;5028611;28;20205;-79
2022/08/16 04:34:02;;;;;;;0.95;0.20;;;18.50;99.90;;;;;;5037513;28;20202;-80
2022/08/16 04:36:34;;;;;;;0.50;0.20;;;18.50;99.90;;;;;;5033159;28;20205;-74
2022/08/16 04:39:05;;;;;;;0.55;0.20;;;18.50;99.90;;;;;;5037935;28;20230;-82
2022/08/16 04:41:37;;;;;;;2.65;0.40;;;18.50;99.90;;;;;;5041137;28;20199;-68
2022/08/16 04:44:08;;;;;;;0.30;0.20;;;18.40;99.90;;;;;;5033309;28;20577;-71
2022/08/16 04:46:39;;;;;;;1.00;0.30;;;18.40;99.90;;;;;;5023872;28;20198;-76
2022/08/16 04:49:10;;;;;;;1.65;0.30;;;18.40;99.90;;;;;;5031857;28;20230;-73
2022/08/16 04:51:41;;;;;;;0.77;0.50;;;18.30;99.90;;;;;;5031724;28;20203;-68
2022/08/16 04:54:13;;;;;;;0.52;0.30;;;18.30;99.90;;;;;;5029521;28;20187;-73
2022/08/16 04:56:45;;;;;;;2.45;0.30;;;18.30;99.90;;;;;;5031915;28;20218;-67
2022/08/16 04:59:16;;;;;;;0.20;0.20;;;18.30;99.90;;;;;;5033070;28;20198;-68
2022/08/16 05:01:47;;;;;;;0.98;0.30;;;18.40;99.90;;;;;;5031551;28;20198;-71
2022/08/16 05:04:18;;;;;;;0.70;0.20;;;18.40;99.90;;;;;;5032388;28;20570;-68
2022/08/16 05:06:48;;;;;;;1.40;0.70;;;18.30;99.90;;;;;;5028280;28;20194;-68
2022/08/16 05:09:19;;;;;;;0.57;0.38;;;18.20;99.90;;;;;;5033282;28;20191;-68
2022/08/16 05:11:52;;;;;;;0.95;0.25;;;18.00;99.90;;;;;;5032033;28;20541;-67
2022/08/16 05:14:23;;;;;;;1.42;0.32;;;18.00;99.90;;;;;;5035940;28;20189;-69
2022/08/16 05:16:54;;;;;;;0.32;0.30;;;18.10;99.90;;;;;;5029621;28;20198;-68
2022/08/16 05:19:24;;;;;;;1.15;0.30;;;18.20;99.90;;;;;;5028652;28;20202;-70
2022/08/16 05:21:55;;;;;;;0.85;0.32;;;18.30;99.90;;;;;;5030275;28;20205;-71
2022/08/16 05:24:26;;;;;;;0.80;0.40;;;18.40;99.90;;;;;;5025849;28;20215;-68
2022/08/16 05:26:59;;;;;;;0.32;0.22;;;18.50;99.90;;;;;;5031518;28;20252;-69
2022/08/16 05:29:29;;;;;;;2.60;0.28;;;18.50;99.90;;;;;;5032822;28;20193;-85
2022/08/16 05:32:00;;;;;;;1.05;0.30;;;18.60;99.90;;;;;;5032633;28;20183;-69
2022/08/16 05:34:31;;;;;;;0.98;0.47;;;18.50;99.90;;;;;;5030876;28;20277;-73
2022/08/16 05:37:02;;;;;;;0.52;0.32;;;18.50;99.90;;;;;;5032210;28;20189;-70
2022/08/16 05:39:33;;;;;;;1.77;0.38;;;18.60;99.90;;;;;;5029935;28;20229;-74
2022/08/16 05:42:11;;;;;;;0.70;0.30;;;18.60;99.90;;;;;;5031287;28;20272;-82
2022/08/16 05:44:41;;;;;;;1.27;0.38;;;18.60;99.90;;;;;;5032448;28;20304;-83
2022/08/16 05:47:12;;;;;;;0.30;0.30;;;18.50;99.90;;;;;;5029273;28;20212;-77
2022/08/16 05:49:43;;;;;;;0.40;0.30;;;18.60;99.90;;;;;;5028821;28;20199;-70
2022/08/16 05:52:14;;;;;;;0.88;0.30;;;18.60;99.90;;;;;;5023931;28;20197;-82
2022/08/16 05:54:46;;;;;;;0.85;0.30;;;18.60;99.90;;;;;;5033413;28;20214;-70
2022/08/16 05:57:19;;;;;;;0.82;0.50;;;18.70;99.90;;;;;;5031041;28;20198;-83
2022/08/16 05:59:50;;;;;;;0.75;0.43;;;18.60;99.90;;;;;;5030861;28;20220;-81
2022/08/16 06:02:25;;;;;;;1.15;0.30;;;18.60;99.90;;;;;;5028643;28;20199;-79
2022/08/16 06:04:55;;;;;;;0.50;0.30;;;18.50;99.90;;;;;;5031314;28;20267;-85
2022/08/16 06:07:26;;;;;;;0.20;0.20;;;18.60;99.90;;;;;;5028658;28;20204;-79
2022/08/16 06:09:58;;;;;;;1.05;0.30;;;18.60;99.90;;;;;;5030962;28;20199;-84
2022/08/16 06:12:31;;;;;;;1.15;0.30;;;18.50;99.90;;;;;;5032121;28;20327;-82
2022/08/16 06:15:03;;;;;;;0.73;0.30;;;18.50;99.90;;;;;;5028204;28;20210;-83
2022/08/16 06:17:34;;;;;;;0.40;0.30;;;18.30;99.90;;;;;;5026861;28;20198;-83
2022/08/16 06:20:05;;;;;;;0.85;0.47;;;18.30;99.90;;;;;;5030264;28;20288;-81
2022/08/16 06:22:37;;;;;;;1.75;0.40;;;18.10;99.90;;;;;;5029657;28;20198;-81
2022/08/16 06:25:08;;;;;;;0.40;0.38;;;18.00;99.90;;;;;;5029825;28;20210;-82
2022/08/16 06:27:41;;;;;;;1.98;0.40;;;17.80;99.90;;;;;;5027163;28;20227;-83
2022/08/16 06:30:13;;;;;;;1.63;0.38;;;17.80;99.90;;;;;;5027618;28;20210;-85
2022/08/16 06:32:44;;;;;;;0.50;0.50;;;17.80;99.90;;;;;;5031699;28;20233;-87
2022/08/16 06:35:16;;;;;;;1.52;0.40;;;17.70;99.90;;;;;;5025515;28;20634;-87
2022/08/16 06:37:46;;;;;;;0.40;0.40;;;17.70;99.90;;;;;;5026434;28;20194;-86
2022/08/16 06:40:17;;;;;;;1.15;0.50;;;17.70;99.90;;;;;;5029797;28;20252;-85
2022/08/16 06:42:51;;;;;;;1.08;0.40;;;17.60;99.90;;;;;;5031796;28;20186;-68
2022/08/16 06:45:21;;;;;;;1.60;0.40;;;17.60;99.90;;;;;;5030106;28;20216;-69
2022/08/16 06:47:52;;;;;;;0.93;0.57;;;17.50;99.90;;;;;;5027103;28;20654;-69
2022/08/16 06:50:23;;;;;;;1.27;0.40;;;17.50;99.90;;;;;;5030163;28;20183;-68
2022/08/16 06:52:54;;;;;;;0.90;0.40;;;17.40;99.90;;;;;;5029553;28;20196;-68
2022/08/16 06:55:25;;;;;;;0.93;0.40;;;17.40;99.90;;;;;;5026242;28;20186;-69
2022/08/16 06:57:58;;;;;;;1.55;0.30;;;17.40;99.90;;;;;;5024279;28;20210;-68
2022/08/16 07:00:29;;;;;;;2.47;0.50;;;17.30;99.90;;;;;;5030771;28;20206;-68
2022/08/16 07:02:59;;;;;;;0.80;0.40;;;17.30;99.90;;;;;;5027168;28;20209;-69
2022/08/16 07:05:31;;;;;;;0.35;0.30;;;17.30;99.90;;;;;;5027027;28;20229;-69
2022/08/16 07:08:03;;;;;;;1.83;0.55;;;17.20;99.90;;;;;;5031465;28;20716;-68
2022/08/16 07:10:33;;;;;;;1.17;0.60;;;17.20;99.90;;;;;;5022131;28;20198;-68
2022/08/16 07:13:06;;;;;;;1.80;0.90;;;17.10;99.90;;;;;;5031466;28;20198;-69
2022/08/16 07:15:37;;;;;;;0.90;0.50;;;17.10;99.90;;;;;;5030754;28;20202;-68
2022/08/16 07:18:10;;;;;;;0.80;0.63;;;17.10;99.90;;;;;;5032915;28;20253;-68
2022/08/16 07:20:41;;;;;;;1.45;0.70;;;17.10;99.90;;;;;;5032307;28;20202;-69
2022/08/16 07:23:12;;;;;;;1.95;0.70;;;17.10;99.90;;;;;;5035286;28;20202;-69
2022/08/16 07:25:43;;;;;;;2.42;0.50;;;17.00;99.90;;;;;;5031773;28;20226;-69
2022/08/16 07:28:17;;;;;;;1.38;0.68;;;17.00;99.90;;;;;;5031534;28;20200;-70
2022/08/16 07:30:49;;;;;;;0.75;0.40;;;17.00;99.90;;;;;;5034505;28;20559;-76
2022/08/16 07:33:19;;;;;;;1.92;0.60;;;16.90;99.90;;;;;;5033869;28;20194;-79
2022/08/16 07:35:50;;;;;;;1.10;0.52;;;16.80;99.90;;;;;;5032428;28;20629;-78
2022/08/16 07:38:21;;;;;;;1.65;0.57;;;16.70;99.90;;;;;;5031663;28;20194;-85
2022/08/16 07:40:52;;;;;;;0.77;0.60;;;16.70;99.90;;;;;;5033633;28;20202;-87
2022/08/16 07:43:25;;;;;;;2.55;0.57;;;16.60;99.90;;;;;;5029965;28;20193;-86
2022/08/16 07:45:55;;;;;;;1.35;0.50;;;16.40;99.90;;;;;;5028126;28;20678;-85
2022/08/16 07:48:27;;;;;;;1.23;0.47;;;16.30;99.90;;;;;;5031678;28;20202;-87
2022/08/16 07:50:58;;;;;;;2.95;0.60;;;16.20;99.90;;;;;;5033699;28;20215;-88
2022/08/16 07:53:30;;;;;;;1.58;0.45;;;16.10;99.90;;;;;;5036124;28;20190;-87
2022/08/16 07:56:01;;;;;;;1.52;0.50;;;16.10;99.90;;;;;;5032711;28;20273;-87
2022/08/16 07:58:34;;;;;;;1.52;0.60;;;16.00;99.90;;;;;;5035757;28;20202;-88
2022/08/16 08:01:07;;;;;;;4.40;0.60;;;15.90;99.90;;;;;;5034570;28;20194;-69
2022/08/16 08:03:37;;;;;;;1.13;0.70;;;15.90;99.90;;;;;;5034589;28;20197;-80
2022/08/16 08:06:08;;;;;;;1.38;0.63;;;15.80;99.90;;;;;;5033449;28;22048;-68
2022/08/16 08:08:39;;;;;;;4.22;0.73;;;15.80;99.90;;;;;;5033120;28;20206;-69
2022/08/16 08:11:11;;;;;;;2.70;0.88;;;15.80;99.90;;;;;;5032144;28;20197;-69
2022/08/16 08:13:44;;;;;;;1.27;0.70;;;15.70;99.90;;;;;;5026032;28;20195;-68
2022/08/16 08:16:15;;;;;;;3.42;1.05;;;15.70;99.90;;;;;;5031687;28;20193;-69
2022/08/16 08:18:46;;;;;;;1.65;1.00;;;15.70;99.90;;;;;;5032218;28;20198;-69
2022/08/16 08:21:18;;;;;;;2.25;1.00;;;15.70;99.90;;;;;;5040528;28;20189;-73
2022/08/16 08:23:49;;;;;;;30.95;19.60;;;15.60;99.90;;;;;;5034546;28;20187;-70
2022/08/16 08:26:20;;;;;;;13.55;8.55;;;15.60;99.90;;;;;;5030609;28;20248;-74
2022/08/16 08:28:53;;;;;;;5.05;3.38;;;15.70;99.90;;;;;;5033317;28;20587;-72
2022/08/16 08:31:24;;;;;;;4.43;2.78;;;15.60;99.90;;;;;;5035245;28;20196;-68
2022/08/16 08:33:55;;;;;;;4.70;2.55;;;15.70;99.90;;;;;;5027308;28;20187;-69
2022/08/16 08:36:29;;;;;;;4.72;2.60;;;15.60;99.90;;;;;;5042534;28;20239;-72
2022/08/16 08:39:00;;;;;;;4.55;2.22;;;15.60;99.90;;;;;;5030914;28;20229;-69
2022/08/16 08:41:31;;;;;;;4.35;2.40;;;15.50;99.90;;;;;;5034000;28;20225;-69
2022/08/16 08:44:03;;;;;;;3.35;2.00;;;15.50;99.90;;;;;;5034111;28;20213;-73
2022/08/16 08:46:34;;;;;;;3.15;1.80;;;15.50;99.90;;;;;;5034359;28;20206;-70
2022/08/16 08:49:06;;;;;;;2.97;1.90;;;15.50;99.90;;;;;;5033837;28;20182;-70
2022/08/16 08:51:39;;;;;;;4.00;2.40;;;15.40;99.90;;;;;;5032489;28;20221;-75
2022/08/16 08:54:10;;;;;;;3.63;1.83;;;15.40;99.90;;;;;;5041051;28;20673;-69
2022/08/16 08:56:40;;;;;;;3.58;1.65;;;15.30;99.90;;;;;;5035818;28;20197;-73
2022/08/16 08:59:13;;;;;;;5.57;1.70;;;15.40;99.90;;;;;;5034516;28;20198;-69
2022/08/16 09:01:46;;;;;;;4.53;1.75;;;15.30;99.90;;;;;;5032953;28;20206;-70
2022/08/16 09:04:17;;;;;;;4.05;1.50;;;15.30;99.90;;;;;;5021241;28;20623;-68
2022/08/16 09:06:48;;;;;;;3.05;1.52;;;15.30;99.90;;;;;;5031861;28;20224;-69
2022/08/16 09:09:19;;;;;;;4.65;1.30;;;15.20;99.90;;;;;;5033928;28;20187;-69
2022/08/16 09:11:49;;;;;;;3.25;1.70;;;15.20;99.90;;;;;;5036989;28;20666;-75
2022/08/16 09:14:22;;;;;;;2.67;1.40;;;15.20;99.90;;;;;;5038451;28;20202;-68
2022/08/16 09:16:53;;;;;;;109.90;69.15;;;15.20;99.90;;;;;;5033788;28;20189;-70
2022/08/16 09:19:24;;;;;;;46.75;31.88;;;15.10;99.90;;;;;;5034185;28;20194;-69
2022/08/16 09:21:54;;;;;;;16.25;10.35;;;15.10;99.90;;;;;;5033751;28;20208;-71
2022/08/16 09:24:25;;;;;;;11.68;7.90;;;15.00;99.90;;;;;;5032234;28;20194;-70
2022/08/16 09:26:56;;;;;;;9.15;5.53;;;15.00;99.90;;;;;;5031235;28;20226;-70
2022/08/16 09:29:28;;;;;;;8.82;3.55;;;14.90;99.90;;;;;;5031021;28;20205;-69
2022/08/16 09:32:00;;;;;;;5.45;3.15;;;14.90;99.90;;;;;;5031910;28;20196;-69
2022/08/16 09:34:32;;;;;;;5.10;2.40;;;14.80;99.90;;;;;;5033193;28;20206;-69
2022/08/16 09:37:02;;;;;;;5.80;2.50;;;14.80;99.90;;;;;;5032543;28;20195;-70
2022/08/16 09:39:33;;;;;;;3.10;2.05;;;14.70;99.90;;;;;;5032146;28;20237;-69
2022/08/16 09:42:04;;;;;;;5.03;1.80;;;14.70;99.90;;;;;;5031147;28;20207;-69
2022/08/16 09:44:37;;;;;;;3.67;1.80;;;14.60;99.90;;;;;;5040018;28;20209;-68
2022/08/16 09:47:11;;;;;;;3.58;1.55;;;14.60;99.90;;;;;;5024505;28;20646;-69
2022/08/16 09:49:42;;;;;;;2.30;1.40;;;14.60;99.90;;;;;;5037938;28;20202;-69
2022/08/16 09:52:13;;;;;;;2.03;1.45;;;14.60;99.90;;;;;;5031580;28;20198;-68
2022/08/16 09:54:44;;;;;;;3.38;1.52;;;14.50;99.90;;;;;;5033311;28;20304;-71
2022/08/16 09:57:15;;;;;;;5.55;2.00;;;14.50;99.90;;;;;;5025921;28;20194;-70
2022/08/16 09:59:47;;;;;;;5.28;1.95;;;14.50;99.90;;;;;;5036608;28;20204;-69
2022/08/16 10:02:18;;;;;;;3.42;2.03;;;14.50;99.90;;;;;;5033069;28;20209;-75
2022/08/16 10:04:49;;;;;;;3.20;1.88;;;14.40;99.90;;;;;;5032364;28;20610;-69
2022/08/16 10:07:19;;;;;;;5.05;2.20;;;14.40;99.90;;;;;;5035274;28;20561;-68
2022/08/16 10:09:50;;;;;;;3.58;2.00;;;14.30;99.90;;;;;;5035722;28;20202;-69
2022/08/16 10:15:11;;;;;;;4.10;1.95;;;14.20;99.90;;;;;;5032562;28;20205;-71
2022/08/16 10:17:41;;;;;;;3.13;1.50;;;14.20;99.90;;;;;;5030075;28;20198;-71
2022/08/16 10:20:13;;;;;;;2.38;1.40;;;14.20;99.90;;;;;;5032132;28;20198;-69
2022/08/16 10:22:44;;;;;;;1.80;1.10;;;14.10;99.90;;;;;;5031615;28;20194;-70
2022/08/16 10:25:15;;;;;;;2.70;1.10;;;14.10;99.90;;;;;;5031761;28;20297;-68
2022/08/16 10:27:47;;;;;;;2.20;1.10;;;14.10;99.90;;;;;;5036492;28;20700;-72
2022/08/16 10:30:21;;;;;;;2.58;1.10;;;14.10;99.90;;;;;;5032792;28;20199;-69
2022/08/16 10:32:52;;;;;;;2.38;1.10;;;14.10;99.90;;;;;;5034595;28;20284;-69
2022/08/16 10:35:22;;;;;;;1.70;0.93;;;14.00;99.90;;;;;;5032212;28;20183;-69
2022/08/16 10:37:54;;;;;;;2.75;0.70;;;13.90;99.90;;;;;;5032293;28;20680;-69
2022/08/16 10:40:24;;;;;;;1.08;0.90;;;13.90;99.90;;;;;;5031700;28;20224;-69
2022/08/16 10:42:55;;;;;;;2.13;1.10;;;13.80;99.90;;;;;;5033407;28;20194;-69
2022/08/16 10:45:28;;;;;;;3.97;1.10;;;13.80;99.90;;;;;;5032066;28;20221;-71
2022/08/16 10:47:59;;;;;;;2.85;1.20;;;13.70;99.90;;;;;;5031885;28;20195;-68
2022/08/16 10:50:31;;;;;;;2.25;1.00;;;13.70;99.90;;;;;;5028955;28;20662;-80
2022/08/16 10:53:05;;;;;;;1.17;0.90;;;13.60;99.90;;;;;;5031731;28;20608;-80
2022/08/16 10:55:37;;;;;;;1.75;1.00;;;13.60;99.90;;;;;;5024896;28;20221;-73
2022/08/16 10:58:09;;;;;;;1.33;1.00;;;13.50;99.90;;;;;;5030931;28;20198;-71
2022/08/16 11:00:42;;;;;;;2.35;1.35;;;13.50;99.90;;;;;;5032465;28;20660;-69
2022/08/16 11:03:13;;;;;;;2.55;1.23;;;13.50;99.90;;;;;;5035084;28;20220;-70
2022/08/16 11:05:45;;;;;;;2.47;1.20;;;13.40;99.90;;;;;;5035239;28;20681;-70
2022/08/16 11:08:16;;;;;;;1.95;1.10;;;13.40;99.90;;;;;;5034747;28;20204;-74
2022/08/16 11:10:48;;;;;;;5.03;1.00;;;13.30;99.90;;;;;;5034659;28;20209;-71
2022/08/16 11:13:22;;;;;;;2.88;1.20;;;13.30;99.90;;;;;;5036409;28;20199;-69
2022/08/16 11:15:56;;;;;;;1.67;1.10;;;13.30;99.90;;;;;;5035910;28;20198;-69
2022/08/16 11:18:28;;;;;;;1.48;1.10;;;13.20;99.90;;;;;;5035765;28;20230;-69
2022/08/16 11:20:59;;;;;;;3.13;1.05;;;13.20;99.90;;;;;;5032204;28;20202;-70
2022/08/16 11:23:30;;;;;;;2.67;1.05;;;13.20;99.90;;;;;;5035339;28;20195;-71
2022/08/16 11:26:01;;;;;;;4.57;1.00;;;13.10;99.90;;;;;;5033641;28;20244;-70
2022/08/16 11:28:32;;;;;;;1.92;1.10;;;13.10;99.90;;;;;;5034471;28;20212;-69
2022/08/16 11:31:05;;;;;;;4.18;1.10;;;13.00;99.90;;;;;;5035577;28;20202;-68
2022/08/16 11:33:36;;;;;;;3.33;1.00;;;13.00;99.90;;;;;;5035316;28;20251;-79
2022/08/16 11:36:07;;;;;;;28.20;1.55;;;13.00;99.90;;;;;;5035621;28;20187;-73
2022/08/16 11:38:38;;;;;;;1.88;1.10;;;12.90;99.90;;;;;;5034987;28;20230;-71
2022/08/16 11:41:09;;;;;;;3.95;1.40;;;12.90;99.90;;;;;;5035671;28;20198;-68
2022/08/16 11:43:42;;;;;;;2.92;1.40;;;12.80;99.90;;;;;;5034907;28;20198;-68
2022/08/16 11:46:16;;;;;;;1.65;1.30;;;12.80;99.90;;;;;;5034664;28;20218;-69
2022/08/16 11:48:47;;;;;;;2.10;1.25;;;12.70;99.90;;;;;;5035133;28;20194;-70
2022/08/16 11:51:18;;;;;;;1.50;1.10;;;12.70;99.90;;;;;;5037959;28;20245;-68
2022/08/16 11:53:48;;;;;;;2.35;1.20;;;12.70;99.90;;;;;;5027123;28;20194;-70
2022/08/16 11:56:19;;;;;;;2.15;1.10;;;12.70;99.90;;;;;;5035357;28;20205;-68
2022/08/16 11:58:50;;;;;;;1.42;0.90;;;12.60;99.90;;;;;;5034216;28;20198;-67
2022/08/16 12:01:23;;;;;;;1.30;0.93;;;12.60;99.90;;;;;;5037263;28;20216;-68
2022/08/16 12:03:53;;;;;;;2.50;1.02;;;12.60;99.90;;;;;;5027921;28;20200;-68
2022/08/16 12:06:24;;;;;;;1.77;0.98;;;12.50;99.90;;;;;;5035473;28;20214;-67
2022/08/16 12:08:57;;;;;;;2.03;1.00;;;12.50;99.90;;;;;;5026232;28;20230;-68
2022/08/16 12:11:28;;;;;;;0.82;0.82;;;12.50;99.90;;;;;;5034167;28;20183;-74
2022/08/16 12:13:59;;;;;;;1.52;0.80;;;12.50;99.90;;;;;;5026510;28;20583;-69
2022/08/16 12:16:32;;;;;;;1.77;0.85;;;12.50;99.90;;;;;;5033019;28;20560;-67
2022/08/16 12:19:02;;;;;;;1.52;0.80;;;12.50;99.90;;;;;;5027001;28;20197;-68
2022/08/16 12:21:33;;;;;;;0.82;0.73;;;12.50;99.90;;;;;;5039867;28;20194;-71
2022/08/16 12:24:04;;;;;;;1.45;0.82;;;12.50;99.90;;;;;;5032270;28;20191;-70
2022/08/16 12:26:35;;;;;;;3.03;1.00;;;12.50;99.90;;;;;;5033283;28;20316;-71
2022/08/16 12:29:06;;;;;;;2.90;1.20;;;12.40;99.90;;;;;;5034111;28;20201;-69
2022/08/16 12:31:39;;;;;;;1.10;0.90;;;12.40;99.90;;;;;;5037153;28;20201;-72
2022/08/16 12:34:10;;;;;;;1.35;0.95;;;12.40;99.90;;;;;;5033682;28;20191;-77
2022/08/16 12:36:41;;;;;;;1.77;1.05;;;12.40;99.90;;;;;;5034374;28;20206;-71
2022/08/16 12:39:11;;;;;;;1.00;0.85;;;12.30;99.90;;;;;;5032570;28;20240;-72
2022/08/16 12:41:45;;;;;;;1.40;1.00;;;12.30;99.90;;;;;;5034890;28;20202;-78
2022/08/16 12:44:16;;;;;;;1.33;0.90;;;12.30;99.90;;;;;;5037823;28;20653;-74
2022/08/16 12:48:56;;;;;;;1.15;0.90;;;12.30;99.90;;;;;;5029079;28;20657;-68
2022/08/16 12:49:38;;;;;;;1.50;1.00;;;12.20;99.90;;;;;;5035745;28;20548;-79
2022/08/16 12:52:10;;;;;;;1.13;0.70;;;12.20;99.90;;;;;;5035753;28;20198;-69
2022/08/16 12:54:40;;;;;;;1.30;0.90;;;12.20;99.90;;;;;;5036907;28;20198;-68
2022/08/16 12:57:11;;;;;;;1.40;1.02;;;12.10;99.90;;;;;;5034766;28;20559;-69
2022/08/16 12:59:42;;;;;;;1.02;0.80;;;12.10;99.90;;;;;;5033925;28;20198;-69
2022/08/16 13:02:20;;;;;;;0.70;0.70;;;12.10;99.90;;;;;;5025774;28;20202;-71
2022/08/16 13:04:54;;;;;;;1.33;0.85;;;12.10;99.90;;;;;;5034047;28;20197;-72
2022/08/16 13:07:32;;;;;;;1.10;0.80;;;12.10;99.90;;;;;;5032799;28;20271;-71
2022/08/16 13:10:08;;;;;;;0.95;0.70;;;12.10;99.90;;;;;;5020905;28;20205;-72